Time;durP1;ratioP1;P1;durP2;ratioP2;P2;SDS_P1;SDS_P2;PMS_P1;PMS_P2;Temp;Humidity;BMP_temperature;BMP_pressure;BME280_temperature;BME280_humidity;BME280_pressure;Samples;Min_cycle;Max_cycle;Signal;HPM_P1;HPM_P2
2021/11/24 00:01:12;;;;;;;6.65;3.83;;;8.20;98.30;;;;;;5034292;28;20026;-49
2021/11/24 00:03:37;;;;;;;6.07;3.63;;;8.20;98.00;;;;;;5034273;28;20025;-49
2021/11/24 00:06:03;;;;;;;6.03;4.18;;;8.20;98.30;;;;;;5033495;28;20021;-49
2021/11/24 00:08:28;;;;;;;11.23;4.30;;;8.20;98.30;;;;;;5033712;28;20068;-49
2021/11/24 00:10:54;;;;;;;6.75;4.32;;;8.20;98.30;;;;;;5033205;28;20030;-49
2021/11/24 00:13:20;;;;;;;9.00;4.65;;;8.20;98.40;;;;;;5033901;28;20463;-49
2021/11/24 00:15:45;;;;;;;7.38;4.10;;;8.20;98.20;;;;;;5033258;28;20026;-49
2021/11/24 00:18:11;;;;;;;8.93;4.85;;;8.20;98.30;;;;;;5033785;28;20498;-49
2021/11/24 00:20:37;;;;;;;8.73;4.57;;;8.20;98.50;;;;;;5032307;28;20025;-49
2021/11/24 00:23:03;;;;;;;12.10;4.30;;;8.20;98.30;;;;;;5033310;28;20030;-49
2021/11/24 00:25:28;;;;;;;6.97;4.00;;;8.20;98.30;;;;;;5032425;28;20029;-49
2021/11/24 00:27:54;;;;;;;7.93;4.32;;;8.20;98.40;;;;;;5033431;28;20360;-49
2021/11/24 00:30:20;;;;;;;9.75;4.80;;;8.30;98.20;;;;;;5033951;28;20028;-49
2021/11/24 00:32:46;;;;;;;9.52;4.57;;;8.20;98.30;;;;;;5033257;28;20117;-49
2021/11/24 00:35:11;;;;;;;8.63;4.40;;;8.20;98.20;;;;;;5032773;28;20018;-49
2021/11/24 00:37:37;;;;;;;7.03;4.30;;;8.30;98.60;;;;;;5033319;28;20475;-49
2021/11/24 00:40:06;;;;;;;7.15;4.95;;;8.20;98.70;;;;;;5025855;28;20038;-49
2021/11/24 00:42:32;;;;;;;9.13;4.05;;;8.20;98.30;;;;;;5013502;28;20449;-49
2021/11/24 00:44:58;;;;;;;9.00;4.68;;;8.30;98.30;;;;;;5012929;28;20052;-49
2021/11/24 00:47:24;;;;;;;9.45;5.25;;;8.30;98.50;;;;;;5013755;28;20449;-49
2021/11/24 00:49:49;;;;;;;8.18;4.70;;;8.30;98.40;;;;;;5013670;28;20491;-49
2021/11/24 00:52:15;;;;;;;11.32;4.80;;;8.30;98.50;;;;;;5013482;28;20468;-49
2021/11/24 00:54:40;;;;;;;11.55;6.75;;;8.30;98.50;;;;;;5014102;28;20025;-49
2021/11/24 00:57:06;;;;;;;9.77;5.55;;;8.30;98.40;;;;;;5032307;28;20330;-49
2021/11/24 00:59:31;;;;;;;9.35;4.32;;;8.30;98.50;;;;;;5033235;28;20041;-49
2021/11/24 01:01:57;;;;;;;12.27;6.13;;;8.30;98.40;;;;;;5033262;28;20017;-49
2021/11/24 01:04:23;;;;;;;12.60;6.47;;;8.30;98.40;;;;;;5033140;28;20516;-49
2021/11/24 01:06:48;;;;;;;12.05;6.35;;;8.30;98.10;;;;;;5031678;28;20018;-49
2021/11/24 01:09:14;;;;;;;19.35;6.28;;;8.30;98.50;;;;;;5033172;28;20029;-49
2021/11/24 01:11:41;;;;;;;15.13;6.97;;;8.30;98.20;;;;;;5032022;28;20101;-49
2021/11/24 01:14:07;;;;;;;16.52;6.45;;;8.30;98.40;;;;;;5033119;28;20025;-49
2021/11/24 01:16:33;;;;;;;14.77;6.10;;;8.30;98.30;;;;;;5032072;28;20477;-49
2021/11/24 01:18:58;;;;;;;14.98;6.53;;;8.30;98.50;;;;;;5032826;28;20029;-49
2021/11/24 01:21:24;;;;;;;10.35;5.30;;;8.30;98.30;;;;;;5032444;28;20029;-49
2021/11/24 01:23:49;;;;;;;12.05;5.65;;;8.30;98.50;;;;;;5032714;28;20216;-49
2021/11/24 01:26:15;;;;;;;14.15;6.05;;;8.30;98.20;;;;;;5018766;28;20446;-50
2021/11/24 01:28:41;;;;;;;12.70;5.65;;;8.30;98.20;;;;;;5020572;28;20095;-49
2021/11/24 01:31:07;;;;;;;12.70;5.13;;;8.30;98.40;;;;;;5032652;28;20022;-49
2021/11/24 01:33:32;;;;;;;9.75;5.32;;;8.30;98.40;;;;;;5032558;28;20044;-49
2021/11/24 01:35:58;;;;;;;9.27;4.47;;;8.30;98.30;;;;;;5031505;28;20057;-49
2021/11/24 01:38:24;;;;;;;13.07;5.50;;;8.30;98.30;;;;;;5032191;28;20527;-49
2021/11/24 01:40:50;;;;;;;13.57;5.43;;;8.30;98.30;;;;;;5031498;28;20531;-49
2021/11/24 01:43:16;;;;;;;7.13;4.13;;;8.30;98.40;;;;;;5032430;28;20370;-49
2021/11/24 01:45:42;;;;;;;8.05;4.82;;;8.30;98.50;;;;;;5031551;28;20037;-49
2021/11/24 01:48:08;;;;;;;7.88;4.82;;;8.30;98.10;;;;;;5031932;28;20376;-49
2021/11/24 01:50:34;;;;;;;6.65;3.83;;;8.30;98.40;;;;;;5032008;28;20065;-50
2021/11/24 01:53:01;;;;;;;8.30;4.90;;;8.30;98.30;;;;;;5032358;28;20026;-49
2021/11/24 01:55:27;;;;;;;10.30;4.88;;;8.30;98.40;;;;;;5026248;28;20525;-49
2021/11/24 01:57:53;;;;;;;6.50;4.07;;;8.30;98.20;;;;;;5012177;28;20125;-50
2021/11/24 02:00:26;;;;;;;8.88;4.70;;;8.30;98.30;;;;;;5012407;28;20104;-49
2021/11/24 02:02:52;;;;;;;6.40;4.05;;;8.30;98.40;;;;;;5015583;28;20038;-49
2021/11/24 02:05:19;;;;;;;11.90;4.30;;;8.30;98.40;;;;;;5031299;28;20235;-49
2021/11/24 02:07:44;;;;;;;12.40;4.45;;;8.30;98.30;;;;;;5031937;28;20037;-50
2021/11/24 02:10:10;;;;;;;6.20;3.60;;;8.30;98.30;;;;;;5031192;28;20464;-49
2021/11/24 02:12:37;;;;;;;10.02;4.43;;;8.30;98.20;;;;;;5031561;28;20460;-49
2021/11/24 02:15:05;;;;;;;8.98;4.32;;;8.30;98.30;;;;;;5031441;28;20017;-49
2021/11/24 02:17:30;;;;;;;9.90;4.53;;;8.30;98.30;;;;;;5031092;28;20048;-49
2021/11/24 02:19:56;;;;;;;8.15;4.32;;;8.30;98.60;;;;;;5031942;28;20057;-49
2021/11/24 02:22:21;;;;;;;8.57;4.75;;;8.30;98.20;;;;;;5031811;28;20108;-49
2021/11/24 02:24:47;;;;;;;7.13;4.10;;;8.30;98.50;;;;;;5030384;28;20401;-49
2021/11/24 02:27:13;;;;;;;7.57;4.15;;;8.30;98.30;;;;;;5013541;28;20036;-49
2021/11/24 02:29:40;;;;;;;8.30;4.15;;;8.30;98.30;;;;;;5011918;28;20042;-49
2021/11/24 02:32:06;;;;;;;7.70;4.38;;;8.30;98.30;;;;;;5011840;28;20468;-49
2021/11/24 02:34:33;;;;;;;12.25;4.43;;;8.30;98.20;;;;;;5011681;28;20034;-49
2021/11/24 02:36:59;;;;;;;10.90;4.07;;;8.30;98.20;;;;;;5010189;28;20393;-49
2021/11/24 02:39:24;;;;;;;5.90;3.78;;;8.30;98.30;;;;;;5031385;28;20025;-49
2021/11/24 02:41:50;;;;;;;5.13;3.67;;;8.30;98.30;;;;;;5026013;28;20463;-49
2021/11/24 02:44:29;;;;;;;10.13;4.63;;;8.30;98.30;;;;;;5011128;28;20080;-49
2021/11/24 02:47:13;;;;;;;5.80;3.58;;;8.30;98.10;;;;;;5010668;28;20026;-49
2021/11/24 02:49:41;;;;;;;8.45;4.13;;;8.30;98.20;;;;;;5011513;28;20389;-49
2021/11/24 02:52:07;;;;;;;9.00;4.18;;;8.30;98.30;;;;;;5010978;28;20460;-49
2021/11/24 02:54:33;;;;;;;7.75;4.20;;;8.30;98.10;;;;;;5010884;28;20457;-49
2021/11/24 02:57:04;;;;;;;7.63;4.50;;;8.30;98.30;;;;;;5022175;28;20087;-49
2021/11/24 02:59:29;;;;;;;;;;;8.30;98.30;;;;;;5031245;28;20052;-49
2021/11/24 03:01:55;;;;;;;7.45;3.97;;;8.30;98.20;;;;;;5030609;28;19954;-49
2021/11/24 03:04:27;;;;;;;5.82;3.83;;;8.30;98.30;;;;;;5030962;28;20033;-49
2021/11/24 03:06:53;;;;;;;7.03;3.45;;;8.30;98.30;;;;;;5029985;28;20457;-49
2021/11/24 03:09:19;;;;;;;6.82;4.07;;;8.30;98.30;;;;;;5030934;28;20068;-49
2021/11/24 03:11:44;;;;;;;9.00;4.32;;;8.30;98.30;;;;;;5027953;28;20491;-49
2021/11/24 03:14:10;;;;;;;7.22;3.65;;;8.30;98.30;;;;;;5030869;28;20443;-49
2021/11/24 03:16:35;;;;;;;7.47;4.22;;;8.30;98.20;;;;;;5029944;28;20031;-49
2021/11/24 03:19:01;;;;;;;8.65;4.13;;;8.30;98.20;;;;;;5030837;28;20121;-49
2021/11/24 03:21:27;;;;;;;8.05;4.35;;;8.30;98.00;;;;;;5030903;28;20033;-49
2021/11/24 03:23:53;;;;;;;10.55;4.68;;;8.30;98.30;;;;;;5030479;28;20474;-49
2021/11/24 03:26:18;;;;;;;6.10;3.55;;;8.30;98.20;;;;;;5028550;28;20033;-49
2021/11/24 03:28:44;;;;;;;7.57;4.25;;;8.30;98.10;;;;;;5030902;28;20471;-49
2021/11/24 03:31:10;;;;;;;6.65;4.03;;;8.30;98.20;;;;;;5030666;28;20029;-49
2021/11/24 03:33:35;;;;;;;7.90;4.10;;;8.30;98.00;;;;;;5030289;28;20061;-49
2021/11/24 03:36:01;;;;;;;9.07;3.45;;;8.30;98.10;;;;;;5022130;28;20017;-49
2021/11/24 03:38:27;;;;;;;6.70;4.00;;;8.30;98.10;;;;;;5025427;28;20388;-49
2021/11/24 03:40:52;;;;;;;5.20;3.33;;;8.30;98.10;;;;;;5030511;28;20453;-49
2021/11/24 03:43:18;;;;;;;7.45;3.95;;;8.30;98.20;;;;;;5009803;28;20076;-49
2021/11/24 03:45:43;;;;;;;4.85;3.38;;;8.30;98.00;;;;;;4992461;28;20117;-49
2021/11/24 03:48:09;;;;;;;6.40;2.75;;;8.30;98.10;;;;;;5025041;28;20048;-49
2021/11/24 03:50:36;;;;;;;7.78;3.85;;;8.30;98.10;;;;;;5030104;28;20456;-49
2021/11/24 03:53:01;;;;;;;5.60;3.10;;;8.30;98.10;;;;;;5030145;28;20452;-49
2021/11/24 03:55:27;;;;;;;7.65;3.80;;;8.30;98.00;;;;;;5030075;28;20129;-50
2021/11/24 03:57:53;;;;;;;7.95;4.10;;;8.30;98.00;;;;;;5029231;28;20030;-50
2021/11/24 04:00:26;;;;;;;7.50;4.15;;;8.30;98.10;;;;;;5030883;28;20107;-50
2021/11/24 04:02:52;;;;;;;7.05;3.20;;;8.30;98.10;;;;;;5030417;28;20021;-50
2021/11/24 04:05:18;;;;;;;6.85;3.63;;;8.30;98.00;;;;;;5029500;28;20456;-49
2021/11/24 04:07:43;;;;;;;8.45;3.95;;;8.30;98.00;;;;;;5030190;28;20116;-50
2021/11/24 04:10:10;;;;;;;6.13;3.30;;;8.30;97.90;;;;;;5030482;28;20034;-50
2021/11/24 04:12:37;;;;;;;7.30;3.38;;;8.30;98.10;;;;;;5029086;28;20388;-50
2021/11/24 04:15:05;;;;;;;7.72;3.40;;;8.30;98.00;;;;;;5032945;28;20360;-49
2021/11/24 04:17:30;;;;;;;7.65;3.08;;;8.30;98.00;;;;;;5033069;28;20503;-49
2021/11/24 04:19:56;;;;;;;6.18;3.67;;;8.30;98.00;;;;;;5032711;28;20033;-49
2021/11/24 04:22:22;;;;;;;6.35;2.97;;;8.30;98.00;;;;;;5033266;28;20352;-49
2021/11/24 04:24:47;;;;;;;5.97;3.58;;;8.30;98.00;;;;;;5033575;28;20504;-49
2021/11/24 04:27:13;;;;;;;4.00;2.85;;;8.30;98.00;;;;;;5024785;28;20465;-49
2021/11/24 04:29:40;;;;;;;6.07;3.08;;;8.30;98.00;;;;;;5014150;28;20338;-49
2021/11/24 04:32:07;;;;;;;4.95;3.40;;;8.30;98.00;;;;;;5013632;28;20470;-49
2021/11/24 04:34:33;;;;;;;5.65;3.60;;;8.30;98.00;;;;;;5013730;28;20026;-49
2021/11/24 04:36:58;;;;;;;6.07;3.67;;;8.30;98.00;;;;;;5012701;28;20026;-49
2021/11/24 04:39:24;;;;;;;5.05;3.58;;;8.30;98.10;;;;;;5014050;28;20030;-49
2021/11/24 04:41:49;;;;;;;6.82;3.50;;;8.30;98.00;;;;;;5016571;28;20511;-49
2021/11/24 04:44:15;;;;;;;5.65;3.17;;;8.30;98.00;;;;;;5033290;28;20033;-49
2021/11/24 04:46:41;;;;;;;13.10;3.40;;;8.30;98.00;;;;;;5032847;28;20387;-49
2021/11/24 04:49:06;;;;;;;9.50;4.00;;;8.30;97.80;;;;;;5033250;28;20034;-49
2021/11/24 04:51:32;;;;;;;7.65;3.63;;;8.30;97.90;;;;;;5033393;28;20056;-49
2021/11/24 04:53:57;;;;;;;9.82;3.22;;;8.30;98.00;;;;;;5033285;28;20112;-49
2021/11/24 04:56:23;;;;;;;6.85;3.67;;;8.30;98.00;;;;;;5021144;28;20083;-49
2021/11/24 04:58:52;;;;;;;11.32;3.90;;;8.30;98.00;;;;;;5030930;28;20033;-49
2021/11/24 05:01:17;;;;;;;7.15;3.90;;;8.30;98.30;;;;;;5033105;28;20471;-49
2021/11/24 05:03:43;;;;;;;7.93;4.03;;;8.30;97.90;;;;;;5032774;28;20021;-49
2021/11/24 05:06:09;;;;;;;8.02;3.88;;;8.30;97.90;;;;;;5031777;28;20029;-49
2021/11/24 05:08:35;;;;;;;10.68;4.53;;;8.30;98.00;;;;;;5032917;28;20508;-49
2021/11/24 05:11:02;;;;;;;7.53;4.50;;;8.30;97.90;;;;;;5032993;28;20018;-49
2021/11/24 05:13:28;;;;;;;12.23;4.47;;;8.30;97.90;;;;;;5031211;28;20270;-49
2021/11/24 05:15:58;;;;;;;10.57;4.75;;;8.30;97.90;;;;;;5032096;28;20033;-49
2021/11/24 05:18:29;;;;;;;13.65;5.03;;;8.30;97.90;;;;;;5033028;28;20029;-49
2021/11/24 05:21:02;;;;;;;11.05;4.80;;;8.30;98.00;;;;;;5032536;28;20038;-49
2021/11/24 05:23:30;;;;;;;10.90;4.80;;;8.30;98.00;;;;;;5033212;28;20072;-48
2021/11/24 05:25:56;;;;;;;8.38;4.88;;;8.30;97.80;;;;;;5031451;28;20080;-48
2021/11/24 05:28:22;;;;;;;15.10;4.78;;;8.20;97.70;;;;;;5021716;28;20038;-49
2021/11/24 05:30:47;;;;;;;13.05;4.55;;;8.30;97.70;;;;;;5012882;28;20104;-49
2021/11/24 05:33:13;;;;;;;10.38;4.78;;;8.30;97.90;;;;;;5012374;28;20032;-49
2021/11/24 05:35:38;;;;;;;13.15;6.15;;;8.30;97.80;;;;;;5012044;28;20022;-49
2021/11/24 05:38:04;;;;;;;9.85;4.75;;;8.30;97.90;;;;;;5020735;28;20129;-49
2021/11/24 05:40:29;;;;;;;8.77;5.40;;;8.20;97.90;;;;;;5022350;28;20025;-49
2021/11/24 05:42:55;;;;;;;14.00;5.78;;;8.20;97.80;;;;;;5019295;28;20438;-49
2021/11/24 05:48:03;;;;;;;10.05;5.05;;;8.20;97.80;;;;;;5017265;28;20044;-49
2021/11/24 05:50:30;;;;;;;10.40;4.78;;;8.20;97.60;;;;;;5012654;28;20029;-49
2021/11/24 05:52:56;;;;;;;12.32;4.97;;;8.20;98.20;;;;;;5012757;28;20125;-49
2021/11/24 05:55:23;;;;;;;11.38;5.50;;;8.20;97.90;;;;;;5011983;28;20401;-49
2021/11/24 05:57:48;;;;;;;7.22;4.43;;;8.20;97.80;;;;;;5014663;28;20071;-50
2021/11/24 06:00:15;;;;;;;7.95;4.70;;;8.20;97.90;;;;;;5032102;28;20029;-49
2021/11/24 06:02:41;;;;;;;6.80;4.55;;;8.20;97.90;;;;;;5032241;28;20033;-49
2021/11/24 06:05:07;;;;;;;10.07;5.03;;;8.20;97.70;;;;;;5029229;28;20059;-49
2021/11/24 06:07:34;;;;;;;10.55;4.80;;;8.20;97.80;;;;;;5031795;28;20041;-49
2021/11/24 06:10:00;;;;;;;10.43;5.47;;;8.20;97.80;;;;;;5031943;28;20464;-49
2021/11/24 06:12:25;;;;;;;9.43;4.78;;;8.20;97.90;;;;;;5031343;28;20041;-49
2021/11/24 06:14:51;;;;;;;8.82;5.15;;;8.20;97.80;;;;;;5029463;28;20353;-49
2021/11/24 06:17:16;;;;;;;18.23;5.47;;;8.20;97.80;;;;;;5011650;28;20030;-49
2021/11/24 06:19:42;;;;;;;12.48;5.13;;;8.20;97.70;;;;;;5021149;28;20446;-49
2021/11/24 06:22:08;;;;;;;14.10;7.18;;;8.20;97.90;;;;;;5031176;28;20461;-49
2021/11/24 06:24:33;;;;;;;15.13;6.00;;;8.20;97.60;;;;;;5030782;28;20525;-50
2021/11/24 06:26:59;;;;;;;20.13;7.05;;;8.20;97.40;;;;;;5030734;28;20348;-50
2021/11/24 06:29:24;;;;;;;18.27;7.47;;;8.20;97.40;;;;;;5029894;28;20041;-50
2021/11/24 06:31:50;;;;;;;19.02;7.68;;;8.20;97.20;;;;;;5030979;28;20099;-50
2021/11/24 06:34:15;;;;;;;16.70;6.72;;;8.20;97.10;;;;;;5031336;28;20193;-50
2021/11/24 06:36:41;;;;;;;19.13;8.20;;;8.20;97.10;;;;;;5025820;28;20492;-50
2021/11/24 06:39:07;;;;;;;18.30;7.50;;;8.20;97.10;;;;;;5031201;28;20065;-50
2021/11/24 06:41:33;;;;;;;20.70;7.80;;;8.20;97.10;;;;;;5031771;28;20326;-50
2021/11/24 06:43:59;;;;;;;17.80;8.25;;;8.20;97.10;;;;;;5029834;28;20084;-50
2021/11/24 06:46:24;;;;;;;21.15;9.05;;;8.10;96.90;;;;;;5030245;28;20034;-50
2021/11/24 06:48:50;;;;;;;18.38;7.25;;;8.10;96.70;;;;;;5030950;28;20084;-50
2021/11/24 06:51:15;;;;;;;20.30;9.10;;;8.10;97.10;;;;;;5031041;28;20021;-50
2021/11/24 06:53:42;;;;;;;21.40;9.13;;;8.10;96.90;;;;;;5030347;28;20025;-50
2021/11/24 06:56:08;;;;;;;15.98;7.32;;;8.10;96.60;;;;;;5030499;28;20076;-50
2021/11/24 06:58:34;;;;;;;24.15;7.50;;;8.10;97.10;;;;;;5029623;28;20033;-50
2021/11/24 07:01:01;;;;;;;15.40;7.35;;;8.20;97.60;;;;;;5030562;28;20345;-50
2021/11/24 07:03:27;;;;;;;14.30;6.43;;;8.20;97.30;;;;;;5030682;28;20025;-50
2021/11/24 07:05:53;;;;;;;22.25;7.43;;;8.20;97.30;;;;;;5030005;28;20036;-50
2021/11/24 07:08:19;;;;;;;17.13;6.30;;;8.20;97.30;;;;;;5030435;28;20365;-50
2021/11/24 07:10:45;;;;;;;17.65;8.10;;;8.10;97.30;;;;;;5030568;28;20029;-50
2021/11/24 07:13:11;;;;;;;23.52;7.72;;;8.10;97.30;;;;;;5029900;28;20104;-50
2021/11/24 07:15:37;;;;;;;21.65;7.65;;;8.20;97.40;;;;;;5029754;28;20026;-50
2021/11/24 07:18:02;;;;;;;20.13;7.03;;;8.20;97.30;;;;;;5030584;28;20030;-50
2021/11/24 07:20:28;;;;;;;20.02;7.38;;;8.10;97.40;;;;;;5030749;28;20041;-49
2021/11/24 07:22:55;;;;;;;18.83;7.78;;;8.10;97.40;;;;;;5030657;28;20094;-50
2021/11/24 07:25:21;;;;;;;16.33;6.60;;;8.10;97.30;;;;;;5030089;28;20409;-50
2021/11/24 07:27:46;;;;;;;21.33;6.60;;;8.10;97.40;;;;;;5030225;28;20591;-49
2021/11/24 07:30:14;;;;;;;21.60;6.85;;;8.10;97.40;;;;;;5029382;28;20033;-50
2021/11/24 07:32:39;;;;;;;15.10;7.13;;;8.10;97.50;;;;;;5030363;28;20032;-50
2021/11/24 07:35:07;;;;;;;20.65;8.35;;;8.10;97.40;;;;;;5029958;28;20017;-50
2021/11/24 07:37:32;;;;;;;16.92;6.95;;;8.10;97.50;;;;;;5030297;28;20460;-50
2021/11/24 07:39:58;;;;;;;20.55;7.10;;;8.10;97.40;;;;;;5030596;28;20032;-50
2021/11/24 07:42:23;;;;;;;17.23;7.93;;;8.10;97.40;;;;;;5030205;28;20084;-50
2021/11/24 07:44:50;;;;;;;18.25;8.07;;;8.10;97.50;;;;;;5015743;28;20038;-50
2021/11/24 07:47:15;;;;;;;19.33;7.80;;;8.10;97.30;;;;;;5010220;28;20033;-50
2021/11/24 07:49:41;;;;;;;16.08;7.53;;;8.10;97.40;;;;;;5014033;28;20038;-50
2021/11/24 07:52:06;;;;;;;27.73;9.63;;;8.10;97.40;;;;;;5014805;28;20018;-50
2021/11/24 07:54:32;;;;;;;16.50;7.63;;;8.10;97.40;;;;;;5014048;28;20022;-50
2021/11/24 07:56:58;;;;;;;23.85;9.05;;;8.10;97.50;;;;;;5013705;28;20025;-50
2021/11/24 07:59:23;;;;;;;22.13;8.38;;;8.10;97.50;;;;;;5021295;28;20038;-50
2021/11/24 08:01:49;;;;;;;17.00;8.48;;;8.10;97.50;;;;;;5033972;28;20072;-50
2021/11/24 08:04:15;;;;;;;17.60;7.97;;;8.10;97.50;;;;;;5034117;28;20104;-50
2021/11/24 08:06:41;;;;;;;21.40;7.93;;;8.10;97.50;;;;;;5033247;28;20022;-50
2021/11/24 08:09:07;;;;;;;22.70;8.70;;;8.10;97.60;;;;;;5034100;28;20482;-50
2021/11/24 08:11:32;;;;;;;15.13;7.75;;;8.10;97.50;;;;;;5034212;28;20049;-50
2021/11/24 08:13:58;;;;;;;17.83;8.30;;;8.10;97.40;;;;;;5032718;28;20088;-51
2021/11/24 08:16:24;;;;;;;28.67;9.73;;;8.10;97.40;;;;;;5033009;28;20032;-50
2021/11/24 08:18:49;;;;;;;24.33;8.38;;;8.10;97.40;;;;;;5034015;28;20061;-50
2021/11/24 08:21:15;;;;;;;18.45;8.73;;;8.10;97.50;;;;;;5031936;28;20026;-50
2021/11/24 08:23:40;;;;;;;19.40;7.97;;;8.10;97.60;;;;;;5033809;28;20026;-50
2021/11/24 08:26:06;;;;;;;25.92;7.88;;;8.10;97.60;;;;;;5033078;28;20030;-50
2021/11/24 08:28:32;;;;;;;18.63;8.13;;;8.10;97.60;;;;;;5028383;28;20199;-50
2021/11/24 08:30:58;;;;;;;21.55;8.35;;;8.10;97.50;;;;;;5032572;28;20450;-50
2021/11/24 08:33:23;;;;;;;21.50;8.60;;;8.10;97.40;;;;;;5033249;28;20044;-50
2021/11/24 08:35:49;;;;;;;27.48;8.52;;;8.10;97.50;;;;;;5032642;28;20046;-50
2021/11/24 08:38:16;;;;;;;21.05;8.50;;;8.10;97.40;;;;;;5033677;28;20048;-50
2021/11/24 08:40:41;;;;;;;27.02;10.80;;;8.10;97.60;;;;;;5033351;28;20036;-50
2021/11/24 08:43:07;;;;;;;21.00;8.05;;;8.10;97.50;;;;;;5032838;28;20037;-50
2021/11/24 08:45:34;;;;;;;26.45;9.63;;;8.10;97.70;;;;;;5017408;28;20036;-50
2021/11/24 08:48:00;;;;;;;30.05;9.73;;;8.10;97.50;;;;;;5013286;28;20409;-50
2021/11/24 08:50:25;;;;;;;26.27;10.25;;;8.10;97.60;;;;;;5013479;28;20245;-49
2021/11/24 08:52:51;;;;;;;29.75;10.35;;;8.10;97.70;;;;;;5013697;28;20034;-50
2021/11/24 08:55:17;;;;;;;22.13;8.82;;;8.10;97.50;;;;;;5012356;28;20495;-50
2021/11/24 08:57:44;;;;;;;32.08;11.88;;;8.10;97.50;;;;;;5012884;28;20028;-51
2021/11/24 09:00:13;;;;;;;24.13;10.18;;;8.10;97.70;;;;;;5021491;28;20469;-50
2021/11/24 09:02:41;;;;;;;29.90;10.95;;;8.10;97.70;;;;;;5033163;28;20129;-50
2021/11/24 09:05:07;;;;;;;20.52;8.27;;;8.10;97.60;;;;;;5031710;28;20021;-50
2021/11/24 09:07:33;;;;;;;25.75;10.75;;;8.20;97.80;;;;;;5032568;28;20053;-50
2021/11/24 09:10:00;;;;;;;24.85;8.38;;;8.20;97.80;;;;;;5032621;28;20416;-50
2021/11/24 09:12:27;;;;;;;31.88;10.88;;;8.20;97.80;;;;;;5032859;28;20557;-50
2021/11/24 09:14:52;;;;;;;23.48;9.23;;;8.20;97.90;;;;;;5014021;28;20024;-50
2021/11/24 09:17:18;;;;;;;23.30;9.20;;;8.20;97.80;;;;;;5032062;28;20025;-49
2021/11/24 09:19:46;;;;;;;30.27;10.27;;;8.20;97.70;;;;;;5032488;28;20018;-50
2021/11/24 09:22:12;;;;;;;26.42;10.25;;;8.10;97.60;;;;;;5032383;28;20214;-50
2021/11/24 09:24:40;;;;;;;24.55;8.23;;;8.10;97.70;;;;;;5032147;28;20021;-50
2021/11/24 09:27:17;;;;;;;27.20;9.93;;;8.20;97.80;;;;;;5031723;28;20030;-50
2021/11/24 09:29:47;;;;;;;23.70;10.27;;;8.20;97.60;;;;;;5031606;28;20083;-50
2021/11/24 09:32:13;;;;;;;23.23;10.13;;;8.10;97.70;;;;;;5026586;28;20116;-50
2021/11/24 09:34:38;;;;;;;27.45;10.82;;;8.10;97.60;;;;;;5020954;28;20276;-50
2021/11/24 09:37:04;;;;;;;31.42;10.18;;;8.10;97.60;;;;;;5031012;28;20026;-50
2021/11/24 09:39:30;;;;;;;24.38;10.43;;;8.10;97.40;;;;;;5032564;28;20030;-50
2021/11/24 09:42:00;;;;;;;21.40;8.60;;;8.20;97.60;;;;;;5031895;28;20456;-50
2021/11/24 09:44:26;;;;;;;;;;;8.10;97.60;;;;;;5030843;28;20448;-50
2021/11/24 09:46:52;;;;;;;25.77;9.65;;;8.10;97.30;;;;;;5011591;28;20324;-50
2021/11/24 09:49:20;;;;;;;32.42;9.68;;;8.10;97.10;;;;;;5012524;28;20044;-50
2021/11/24 09:51:48;;;;;;;26.20;9.57;;;8.10;97.20;;;;;;5011836;28;20140;-50
2021/11/24 09:54:14;;;;;;;23.08;9.05;;;8.10;97.50;;;;;;5012144;28;20041;-50
2021/11/24 09:56:41;;;;;;;26.13;8.43;;;8.20;97.40;;;;;;5011443;28;20156;-50
2021/11/24 09:59:08;;;;;;;32.55;8.82;;;8.10;97.40;;;;;;5012092;28;20041;-50
2021/11/24 10:01:34;;;;;;;25.35;8.73;;;8.20;97.60;;;;;;5028643;28;20102;-50
2021/11/24 10:04:00;;;;;;;20.90;9.23;;;8.20;97.50;;;;;;5022614;28;20448;-50
2021/11/24 10:06:27;;;;;;;26.55;10.45;;;8.20;97.50;;;;;;5010836;28;20036;-50
2021/11/24 10:08:54;;;;;;;26.75;9.38;;;8.20;97.20;;;;;;5012503;28;20030;-50
2021/11/24 10:11:19;;;;;;;27.88;11.15;;;8.10;97.10;;;;;;5011785;28;20026;-50
2021/11/24 10:13:48;;;;;;;35.65;10.70;;;8.20;97.20;;;;;;5012075;28;20164;-50
2021/11/24 10:16:28;;;;;;;25.80;9.05;;;8.20;97.60;;;;;;5023555;28;20032;-50
2021/11/24 10:19:07;;;;;;;18.83;8.98;;;8.20;97.60;;;;;;5029939;28;20083;-50
2021/11/24 10:21:34;;;;;;;35.45;10.98;;;8.20;97.20;;;;;;5031515;28;20040;-50
2021/11/24 10:24:03;;;;;;;24.80;8.20;;;8.20;97.60;;;;;;5031822;28;20029;-50
2021/11/24 10:26:39;;;;;;;21.70;8.38;;;8.20;97.60;;;;;;5030933;28;20530;-50
2021/11/24 10:29:14;;;;;;;26.42;8.90;;;8.20;97.60;;;;;;5031232;28;20376;-50
2021/11/24 10:31:45;;;;;;;23.98;9.07;;;8.20;97.80;;;;;;5029884;28;20041;-50
2021/11/24 10:34:19;;;;;;;25.70;8.93;;;8.20;97.70;;;;;;5031622;28;20083;-50
2021/11/24 10:36:54;;;;;;;32.17;10.65;;;8.20;97.50;;;;;;5030626;28;20040;-50
2021/11/24 10:39:22;;;;;;;32.65;8.73;;;8.20;97.50;;;;;;5031403;28;20499;-50
2021/11/24 10:41:49;;;;;;;28.02;10.32;;;8.20;97.80;;;;;;5030438;28;20480;-49
2021/11/24 10:44:26;;;;;;;25.60;9.80;;;8.20;97.80;;;;;;5030903;28;20049;-50
2021/11/24 10:46:54;;;;;;;24.20;8.32;;;8.20;97.60;;;;;;5013051;28;20521;-50
2021/11/24 10:49:28;;;;;;;27.52;9.93;;;8.20;97.80;;;;;;5011543;28;20457;-50
2021/11/24 10:51:54;;;;;;;27.42;9.38;;;8.20;97.50;;;;;;5027773;28;20436;-50
2021/11/24 10:54:20;;;;;;;36.00;10.77;;;8.20;97.80;;;;;;5030284;28;20121;-50
2021/11/24 10:57:04;;;;;;;24.33;8.55;;;8.20;97.70;;;;;;5030069;28;20029;-50
2021/11/24 10:59:34;;;;;;;24.83;9.13;;;8.20;97.70;;;;;;5031372;28;20350;-50
2021/11/24 11:02:25;;;;;;;26.90;10.40;;;8.20;97.80;;;;;;5029662;28;20037;-50
2021/11/24 11:05:01;;;;;;;;;;;8.20;97.40;;;;;;5030860;28;20072;-50
2021/11/24 11:07:56;;;;;;;26.17;8.93;;;8.20;97.50;;;;;;5030197;28;19916;-50
2021/11/24 11:10:32;;;;;;;26.70;8.35;;;8.20;97.90;;;;;;5025320;28;20026;-50
2021/11/24 11:13:02;;;;;;;26.15;8.00;;;8.20;97.80;;;;;;5030696;28;20025;-50
2021/11/24 11:15:35;;;;;;;28.15;11.13;;;8.20;97.80;;;;;;5028945;28;20029;-50
2021/11/24 11:18:08;;;;;;;27.70;9.45;;;8.20;97.80;;;;;;5030791;28;20120;-50
2021/11/24 11:20:44;;;;;;;29.77;9.82;;;8.20;97.70;;;;;;5030894;28;20049;-50
2021/11/24 11:23:15;;;;;;;34.38;10.60;;;8.20;97.80;;;;;;5030249;28;20034;-50
2021/11/24 11:25:51;;;;;;;29.25;8.95;;;8.20;97.60;;;;;;5029404;28;20397;-50
2021/11/24 11:28:18;;;;;;;28.25;9.95;;;8.20;97.80;;;;;;5030443;28;20488;-50
2021/11/24 11:30:46;;;;;;;26.00;10.32;;;8.20;97.80;;;;;;5029449;28;20128;-50
2021/11/24 11:33:14;;;;;;;30.17;10.98;;;8.20;97.60;;;;;;5030558;28;20033;-50
2021/11/24 11:35:43;;;;;;;28.42;8.15;;;8.20;97.60;;;;;;5029896;28;20014;-50
2021/11/24 11:38:09;;;;;;;22.70;8.25;;;8.20;97.80;;;;;;5029799;28;20033;-50
2021/11/24 11:40:40;;;;;;;29.55;9.55;;;8.20;97.80;;;;;;5027226;28;20108;-50
2021/11/24 11:43:08;;;;;;;29.15;9.57;;;8.20;97.80;;;;;;5010626;28;20030;-50
2021/11/24 11:45:36;;;;;;;23.23;9.23;;;8.20;97.90;;;;;;5010676;28;20117;-50
2021/11/24 11:48:04;;;;;;;23.40;8.85;;;8.20;97.70;;;;;;5017992;28;20144;-50
2021/11/24 11:50:50;;;;;;;28.60;9.63;;;8.20;97.90;;;;;;5030493;28;20028;-50
2021/11/24 11:53:23;;;;;;;30.33;8.40;;;8.20;97.80;;;;;;5029593;28;20342;-50
2021/11/24 11:56:10;;;;;;;22.10;8.07;;;8.20;97.80;;;;;;5030207;28;20322;-50
2021/11/24 11:58:47;;;;;;;19.95;7.63;;;8.20;97.80;;;;;;5030125;28;20414;-50
2021/11/24 12:01:15;;;;;;;27.35;8.98;;;8.20;97.90;;;;;;5029641;28;20037;-50
2021/11/24 12:03:56;;;;;;;26.75;9.10;;;8.20;97.80;;;;;;5030740;28;20030;-50
2021/11/24 12:06:26;;;;;;;27.23;8.73;;;8.20;97.90;;;;;;5029519;28;20018;-50
2021/11/24 12:09:07;;;;;;;21.58;9.00;;;8.20;98.00;;;;;;5030114;28;20048;-50
2021/11/24 12:14:55;;;;;;;28.88;9.90;;;8.10;97.70;;;;;;5029770;28;20041;-50
2021/11/24 12:20:00;;;;;;;31.58;9.73;;;8.20;97.90;;;;;;5030513;28;20037;-50
2021/11/24 12:23:02;;;;;;;30.58;9.05;;;8.20;97.80;;;;;;5028322;28;20021;-50
2021/11/24 12:25:27;;;;;;;24.73;10.70;;;8.20;97.90;;;;;;5028966;28;20511;-50
2021/11/24 12:27:53;;;;;;;29.85;11.02;;;8.20;97.90;;;;;;5029386;28;20049;-50
2021/11/24 12:30:47;;;;;;;19.00;7.75;;;8.20;97.90;;;;;;5030303;28;20481;-50
2021/11/24 12:33:23;;;;;;;24.13;9.50;;;8.20;97.70;;;;;;4999897;28;20038;-50
2021/11/24 12:35:56;;;;;;;37.42;9.95;;;8.20;97.80;;;;;;5010718;28;20718;-50
2021/11/24 12:38:25;;;;;;;26.00;10.68;;;8.20;97.90;;;;;;5013247;28;20109;-50
2021/11/24 12:40:54;;;;;;;28.92;9.55;;;8.20;97.90;;;;;;5011411;28;20444;-50
2021/11/24 12:43:24;;;;;;;24.05;9.25;;;8.20;98.10;;;;;;5013651;28;20017;-50
2021/11/24 12:46:22;;;;;;;31.73;8.88;;;8.20;98.00;;;;;;5012999;28;20069;-50
2021/11/24 12:48:50;;;;;;;27.67;10.57;;;8.20;98.10;;;;;;5012776;28;20380;-50
2021/11/24 12:51:28;;;;;;;25.13;8.50;;;8.20;97.90;;;;;;5013858;28;20022;-50
2021/11/24 12:53:55;;;;;;;21.10;9.23;;;8.20;97.90;;;;;;5013285;28;20021;-50
2021/11/24 12:56:24;;;;;;;22.48;9.63;;;8.20;98.10;;;;;;5012453;28;20511;-50
2021/11/24 12:58:50;;;;;;;26.25;10.13;;;8.20;98.20;;;;;;5032721;28;20099;-50
2021/11/24 13:01:18;;;;;;;28.23;10.23;;;8.20;98.10;;;;;;5032886;28;20025;-50